sensor_id;sensor_type;location;lat;lon;timestamp;P1;durP1;ratioP1;P2;durP2;ratioP2
17725;SDS011;8983;53.156;17.960;2022-12-31T00:01:11;34.30;;;16.37;;
17725;SDS011;8983;53.156;17.960;2022-12-31T00:03:41;24.63;;;13.13;;
17725;SDS011;8983;53.156;17.960;2022-12-31T00:06:14;19.37;;;11.57;;
17725;SDS011;8983;53.156;17.960;2022-12-31T00:08:46;18.93;;;10.40;;
17725;SDS011;8983;53.156;17.960;2022-12-31T00:11:15;29.67;;;12.17;;
17725;SDS011;8983;53.156;17.960;2022-12-31T00:13:43;16.93;;;10.20;;
17725;SDS011;8983;53.156;17.960;2022-12-31T00:16:12;17.13;;;10.60;;
17725;SDS011;8983;53.156;17.960;2022-12-31T00:18:42;12.97;;;6.63;;
17725;SDS011;8983;53.156;17.960;2022-12-31T00:21:11;14.87;;;9.23;;
17725;SDS011;8983;53.156;17.960;2022-12-31T00:23:40;14.37;;;7.23;;
17725;SDS011;8983;53.156;17.960;2022-12-31T00:26:10;35.13;;;15.57;;
17725;SDS011;8983;53.156;17.960;2022-12-31T00:28:41;22.47;;;11.47;;
17725;SDS011;8983;53.156;17.960;2022-12-31T00:31:11;20.53;;;10.33;;
17725;SDS011;8983;53.156;17.960;2022-12-31T00:33:40;30.77;;;14.00;;
17725;SDS011;8983;53.156;17.960;2022-12-31T00:36:10;48.03;;;23.20;;
17725;SDS011;8983;53.156;17.960;2022-12-31T00:38:40;29.87;;;16.10;;
17725;SDS011;8983;53.156;17.960;2022-12-31T00:41:12;23.53;;;12.13;;
17725;SDS011;8983;53.156;17.960;2022-12-31T00:43:41;30.43;;;13.33;;
17725;SDS011;8983;53.156;17.960;2022-12-31T00:46:09;30.27;;;12.57;;
17725;SDS011;8983;53.156;17.960;2022-12-31T00:48:39;15.33;;;8.30;;
17725;SDS011;8983;53.156;17.960;2022-12-31T00:51:09;35.53;;;17.50;;
17725;SDS011;8983;53.156;17.960;2022-12-31T00:53:38;24.77;;;13.23;;
17725;SDS011;8983;53.156;17.960;2022-12-31T00:56:07;22.00;;;13.50;;
17725;SDS011;8983;53.156;17.960;2022-12-31T00:58:39;26.20;;;12.57;;
17725;SDS011;8983;53.156;17.960;2022-12-31T01:01:08;22.90;;;11.63;;
17725;SDS011;8983;53.156;17.960;2022-12-31T01:03:37;20.77;;;12.17;;
17725;SDS011;8983;53.156;17.960;2022-12-31T01:06:05;20.37;;;11.50;;
17725;SDS011;8983;53.156;17.960;2022-12-31T01:08:34;17.20;;;8.83;;
17725;SDS011;8983;53.156;17.960;2022-12-31T01:11:02;16.73;;;9.33;;
17725;SDS011;8983;53.156;17.960;2022-12-31T01:13:49;10.50;;;6.17;;
17725;SDS011;8983;53.156;17.960;2022-12-31T01:16:19;13.10;;;7.60;;
17725;SDS011;8983;53.156;17.960;2022-12-31T01:18:49;13.87;;;7.87;;
17725;SDS011;8983;53.156;17.960;2022-12-31T01:21:18;13.40;;;7.87;;
17725;SDS011;8983;53.156;17.960;2022-12-31T01:23:47;14.43;;;8.20;;
17725;SDS011;8983;53.156;17.960;2022-12-31T01:26:17;18.13;;;9.23;;
17725;SDS011;8983;53.156;17.960;2022-12-31T01:28:46;11.97;;;7.00;;
17725;SDS011;8983;53.156;17.960;2022-12-31T01:31:16;11.47;;;7.10;;
17725;SDS011;8983;53.156;17.960;2022-12-31T01:33:45;8.07;;;5.57;;
17725;SDS011;8983;53.156;17.960;2022-12-31T01:36:14;15.07;;;8.53;;
17725;SDS011;8983;53.156;17.960;2022-12-31T01:38:51;12.37;;;6.97;;
17725;SDS011;8983;53.156;17.960;2022-12-31T01:41:20;12.17;;;7.03;;
17725;SDS011;8983;53.156;17.960;2022-12-31T01:43:51;12.17;;;7.37;;
17725;SDS011;8983;53.156;17.960;2022-12-31T01:46:24;10.90;;;6.30;;
17725;SDS011;8983;53.156;17.960;2022-12-31T01:49:00;12.70;;;6.80;;
17725;SDS011;8983;53.156;17.960;2022-12-31T01:51:31;10.63;;;7.00;;
17725;SDS011;8983;53.156;17.960;2022-12-31T01:54:01;13.83;;;7.23;;
17725;SDS011;8983;53.156;17.960;2022-12-31T01:56:32;10.00;;;6.27;;
17725;SDS011;8983;53.156;17.960;2022-12-31T01:59:03;11.53;;;7.27;;
17725;SDS011;8983;53.156;17.960;2022-12-31T02:01:34;9.93;;;6.30;;
17725;SDS011;8983;53.156;17.960;2022-12-31T02:04:05;8.63;;;6.00;;
17725;SDS011;8983;53.156;17.960;2022-12-31T02:06:36;11.73;;;5.80;;
17725;SDS011;8983;53.156;17.960;2022-12-31T02:09:07;11.50;;;6.97;;
17725;SDS011;8983;53.156;17.960;2022-12-31T02:11:36;6.77;;;5.77;;
17725;SDS011;8983;53.156;17.960;2022-12-31T02:14:06;9.90;;;6.23;;
17725;SDS011;8983;53.156;17.960;2022-12-31T02:16:40;9.97;;;7.00;;
17725;SDS011;8983;53.156;17.960;2022-12-31T02:19:22;9.17;;;6.50;;
17725;SDS011;8983;53.156;17.960;2022-12-31T02:22:13;10.37;;;7.13;;
17725;SDS011;8983;53.156;17.960;2022-12-31T02:27:51;4.80;;;3.97;;
17725;SDS011;8983;53.156;17.960;2022-12-31T02:30:30;14.47;;;6.40;;
17725;SDS011;8983;53.156;17.960;2022-12-31T02:33:02;9.27;;;5.60;;
17725;SDS011;8983;53.156;17.960;2022-12-31T02:35:37;10.73;;;6.47;;
17725;SDS011;8983;53.156;17.960;2022-12-31T02:38:13;8.50;;;4.80;;
17725;SDS011;8983;53.156;17.960;2022-12-31T02:40:45;9.07;;;5.83;;
17725;SDS011;8983;53.156;17.960;2022-12-31T02:43:14;8.63;;;4.83;;
17725;SDS011;8983;53.156;17.960;2022-12-31T02:45:43;13.60;;;7.83;;
17725;SDS011;8983;53.156;17.960;2022-12-31T02:48:16;13.33;;;7.27;;
17725;SDS011;8983;53.156;17.960;2022-12-31T02:50:54;8.73;;;6.67;;
17725;SDS011;8983;53.156;17.960;2022-12-31T02:53:34;12.37;;;7.43;;
17725;SDS011;8983;53.156;17.960;2022-12-31T02:56:26;7.50;;;5.00;;
17725;SDS011;8983;53.156;17.960;2022-12-31T02:59:02;8.73;;;5.67;;
17725;SDS011;8983;53.156;17.960;2022-12-31T03:01:57;9.17;;;5.80;;
17725;SDS011;8983;53.156;17.960;2022-12-31T03:04:43;9.23;;;6.60;;
17725;SDS011;8983;53.156;17.960;2022-12-31T03:07:14;10.23;;;5.40;;
17725;SDS011;8983;53.156;17.960;2022-12-31T03:09:45;11.23;;;6.57;;
17725;SDS011;8983;53.156;17.960;2022-12-31T03:12:14;9.70;;;6.47;;
17725;SDS011;8983;53.156;17.960;2022-12-31T03:15:01;9.63;;;6.33;;
17725;SDS011;8983;53.156;17.960;2022-12-31T03:17:33;11.77;;;7.50;;
17725;SDS011;8983;53.156;17.960;2022-12-31T03:20:01;12.80;;;7.33;;
17725;SDS011;8983;53.156;17.960;2022-12-31T03:22:46;13.83;;;6.93;;
17725;SDS011;8983;53.156;17.960;2022-12-31T03:25:16;8.73;;;5.17;;
17725;SDS011;8983;53.156;17.960;2022-12-31T03:27:59;8.40;;;5.23;;
17725;SDS011;8983;53.156;17.960;2022-12-31T03:30:28;9.20;;;6.10;;
17725;SDS011;8983;53.156;17.960;2022-12-31T03:32:58;8.37;;;5.77;;
17725;SDS011;8983;53.156;17.960;2022-12-31T03:35:28;10.03;;;6.53;;
17725;SDS011;8983;53.156;17.960;2022-12-31T03:37:58;10.60;;;5.13;;
17725;SDS011;8983;53.156;17.960;2022-12-31T03:40:27;8.43;;;5.77;;
17725;SDS011;8983;53.156;17.960;2022-12-31T03:42:56;12.80;;;6.20;;
17725;SDS011;8983;53.156;17.960;2022-12-31T03:45:24;8.87;;;5.60;;
17725;SDS011;8983;53.156;17.960;2022-12-31T03:47:52;10.03;;;6.40;;
17725;SDS011;8983;53.156;17.960;2022-12-31T03:50:22;8.50;;;3.80;;
17725;SDS011;8983;53.156;17.960;2022-12-31T03:52:50;8.97;;;5.93;;
17725;SDS011;8983;53.156;17.960;2022-12-31T03:55:18;11.30;;;6.30;;
17725;SDS011;8983;53.156;17.960;2022-12-31T03:57:46;7.63;;;6.17;;
17725;SDS011;8983;53.156;17.960;2022-12-31T04:00:15;9.97;;;6.20;;
17725;SDS011;8983;53.156;17.960;2022-12-31T04:02:44;7.97;;;5.73;;
17725;SDS011;8983;53.156;17.960;2022-12-31T04:05:13;9.20;;;6.97;;
17725;SDS011;8983;53.156;17.960;2022-12-31T04:07:43;9.13;;;5.97;;
17725;SDS011;8983;53.156;17.960;2022-12-31T04:10:13;9.60;;;5.80;;
17725;SDS011;8983;53.156;17.960;2022-12-31T04:12:42;8.93;;;5.27;;
17725;SDS011;8983;53.156;17.960;2022-12-31T04:15:11;9.53;;;5.50;;
17725;SDS011;8983;53.156;17.960;2022-12-31T04:17:42;6.23;;;5.43;;
17725;SDS011;8983;53.156;17.960;2022-12-31T04:20:10;6.33;;;4.90;;
17725;SDS011;8983;53.156;17.960;2022-12-31T04:22:38;8.13;;;5.20;;
17725;SDS011;8983;53.156;17.960;2022-12-31T04:25:08;7.93;;;4.90;;
17725;SDS011;8983;53.156;17.960;2022-12-31T04:27:37;7.57;;;5.17;;
17725;SDS011;8983;53.156;17.960;2022-12-31T04:30:06;8.97;;;5.23;;
17725;SDS011;8983;53.156;17.960;2022-12-31T04:32:34;7.67;;;5.50;;
17725;SDS011;8983;53.156;17.960;2022-12-31T04:35:02;10.20;;;5.30;;
17725;SDS011;8983;53.156;17.960;2022-12-31T04:37:31;8.53;;;5.13;;
17725;SDS011;8983;53.156;17.960;2022-12-31T04:39:59;7.43;;;4.57;;
17725;SDS011;8983;53.156;17.960;2022-12-31T04:42:33;7.13;;;4.80;;
17725;SDS011;8983;53.156;17.960;2022-12-31T04:45:01;7.93;;;4.80;;
17725;SDS011;8983;53.156;17.960;2022-12-31T04:47:30;7.30;;;4.97;;
17725;SDS011;8983;53.156;17.960;2022-12-31T04:49:58;6.17;;;4.30;;
17725;SDS011;8983;53.156;17.960;2022-12-31T04:52:27;6.67;;;3.83;;
17725;SDS011;8983;53.156;17.960;2022-12-31T04:54:55;6.90;;;4.60;;
17725;SDS011;8983;53.156;17.960;2022-12-31T04:57:23;5.33;;;3.83;;
17725;SDS011;8983;53.156;17.960;2022-12-31T04:59:52;6.13;;;4.30;;
17725;SDS011;8983;53.156;17.960;2022-12-31T05:02:20;5.73;;;4.37;;
17725;SDS011;8983;53.156;17.960;2022-12-31T05:04:48;5.30;;;4.77;;
17725;SDS011;8983;53.156;17.960;2022-12-31T05:07:16;6.90;;;4.70;;
17725;SDS011;8983;53.156;17.960;2022-12-31T05:09:44;10.90;;;5.47;;
17725;SDS011;8983;53.156;17.960;2022-12-31T05:12:12;7.93;;;4.67;;
17725;SDS011;8983;53.156;17.960;2022-12-31T05:14:40;6.83;;;4.17;;
17725;SDS011;8983;53.156;17.960;2022-12-31T05:17:09;8.57;;;4.77;;
17725;SDS011;8983;53.156;17.960;2022-12-31T05:19:37;7.50;;;4.20;;
17725;SDS011;8983;53.156;17.960;2022-12-31T05:22:05;6.50;;;4.10;;
17725;SDS011;8983;53.156;17.960;2022-12-31T05:24:51;6.83;;;4.83;;
17725;SDS011;8983;53.156;17.960;2022-12-31T05:27:19;6.60;;;4.30;;
17725;SDS011;8983;53.156;17.960;2022-12-31T05:29:47;6.93;;;4.27;;
17725;SDS011;8983;53.156;17.960;2022-12-31T05:32:16;9.33;;;4.50;;
17725;SDS011;8983;53.156;17.960;2022-12-31T05:34:44;6.37;;;4.07;;
17725;SDS011;8983;53.156;17.960;2022-12-31T05:37:13;4.43;;;3.57;;
17725;SDS011;8983;53.156;17.960;2022-12-31T05:39:40;10.50;;;6.17;;
17725;SDS011;8983;53.156;17.960;2022-12-31T05:42:08;6.93;;;4.43;;
17725;SDS011;8983;53.156;17.960;2022-12-31T05:44:36;8.40;;;4.60;;
17725;SDS011;8983;53.156;17.960;2022-12-31T05:47:04;10.40;;;4.93;;
17725;SDS011;8983;53.156;17.960;2022-12-31T05:49:33;10.03;;;5.00;;
17725;SDS011;8983;53.156;17.960;2022-12-31T05:52:01;9.50;;;6.00;;
17725;SDS011;8983;53.156;17.960;2022-12-31T05:54:29;8.87;;;5.33;;
17725;SDS011;8983;53.156;17.960;2022-12-31T05:56:58;9.07;;;7.20;;
17725;SDS011;8983;53.156;17.960;2022-12-31T05:59:26;10.47;;;5.73;;
17725;SDS011;8983;53.156;17.960;2022-12-31T06:01:54;8.07;;;5.43;;
17725;SDS011;8983;53.156;17.960;2022-12-31T06:04:22;6.57;;;4.30;;
17725;SDS011;8983;53.156;17.960;2022-12-31T06:06:52;8.10;;;4.80;;
17725;SDS011;8983;53.156;17.960;2022-12-31T06:09:20;6.33;;;4.63;;
17725;SDS011;8983;53.156;17.960;2022-12-31T06:11:48;6.40;;;4.57;;
17725;SDS011;8983;53.156;17.960;2022-12-31T06:14:16;8.23;;;4.70;;
17725;SDS011;8983;53.156;17.960;2022-12-31T06:16:44;6.57;;;4.97;;
17725;SDS011;8983;53.156;17.960;2022-12-31T06:19:12;4.40;;;3.63;;
17725;SDS011;8983;53.156;17.960;2022-12-31T06:21:41;6.83;;;4.30;;
17725;SDS011;8983;53.156;17.960;2022-12-31T06:24:10;8.00;;;4.27;;
17725;SDS011;8983;53.156;17.960;2022-12-31T06:26:38;5.83;;;4.67;;
17725;SDS011;8983;53.156;17.960;2022-12-31T06:29:06;6.00;;;4.13;;
17725;SDS011;8983;53.156;17.960;2022-12-31T06:31:35;5.90;;;4.50;;
17725;SDS011;8983;53.156;17.960;2022-12-31T06:34:03;10.63;;;5.43;;
17725;SDS011;8983;53.156;17.960;2022-12-31T06:36:32;5.37;;;3.93;;
17725;SDS011;8983;53.156;17.960;2022-12-31T06:39:00;8.60;;;4.87;;
17725;SDS011;8983;53.156;17.960;2022-12-31T06:41:30;5.70;;;3.90;;
17725;SDS011;8983;53.156;17.960;2022-12-31T06:43:58;8.57;;;5.53;;
17725;SDS011;8983;53.156;17.960;2022-12-31T06:46:26;6.73;;;4.80;;
17725;SDS011;8983;53.156;17.960;2022-12-31T06:48:54;7.70;;;4.60;;
17725;SDS011;8983;53.156;17.960;2022-12-31T06:51:22;6.43;;;4.83;;
17725;SDS011;8983;53.156;17.960;2022-12-31T06:53:50;7.40;;;4.37;;
17725;SDS011;8983;53.156;17.960;2022-12-31T06:56:19;6.63;;;5.37;;
17725;SDS011;8983;53.156;17.960;2022-12-31T06:58:56;7.13;;;4.77;;
17725;SDS011;8983;53.156;17.960;2022-12-31T07:01:29;6.40;;;4.50;;
17725;SDS011;8983;53.156;17.960;2022-12-31T07:04:20;7.13;;;4.87;;
17725;SDS011;8983;53.156;17.960;2022-12-31T07:07:02;8.03;;;5.40;;
17725;SDS011;8983;53.156;17.960;2022-12-31T07:09:37;6.93;;;5.00;;
17725;SDS011;8983;53.156;17.960;2022-12-31T07:12:15;9.57;;;4.90;;
17725;SDS011;8983;53.156;17.960;2022-12-31T07:14:58;5.93;;;4.53;;
17725;SDS011;8983;53.156;17.960;2022-12-31T07:17:32;6.27;;;3.97;;
17725;SDS011;8983;53.156;17.960;2022-12-31T07:20:08;6.73;;;4.93;;
17725;SDS011;8983;53.156;17.960;2022-12-31T07:22:37;7.00;;;4.93;;
17725;SDS011;8983;53.156;17.960;2022-12-31T07:25:06;7.27;;;4.83;;
17725;SDS011;8983;53.156;17.960;2022-12-31T07:27:46;7.23;;;4.67;;
17725;SDS011;8983;53.156;17.960;2022-12-31T07:30:24;6.60;;;4.37;;
17725;SDS011;8983;53.156;17.960;2022-12-31T07:33:04;8.33;;;5.20;;
17725;SDS011;8983;53.156;17.960;2022-12-31T07:35:43;6.63;;;4.53;;
17725;SDS011;8983;53.156;17.960;2022-12-31T07:38:20;7.97;;;5.93;;
17725;SDS011;8983;53.156;17.960;2022-12-31T07:40:58;6.30;;;4.93;;
17725;SDS011;8983;53.156;17.960;2022-12-31T07:43:38;7.17;;;5.10;;
17725;SDS011;8983;53.156;17.960;2022-12-31T07:46:18;5.40;;;4.40;;
17725;SDS011;8983;53.156;17.960;2022-12-31T07:48:52;7.03;;;4.57;;
17725;SDS011;8983;53.156;17.960;2022-12-31T07:51:21;10.13;;;6.20;;
17725;SDS011;8983;53.156;17.960;2022-12-31T07:53:49;6.83;;;5.70;;
17725;SDS011;8983;53.156;17.960;2022-12-31T07:56:17;8.83;;;5.57;;
17725;SDS011;8983;53.156;17.960;2022-12-31T07:58:57;6.40;;;4.70;;
17725;SDS011;8983;53.156;17.960;2022-12-31T08:01:34;9.47;;;5.83;;
17725;SDS011;8983;53.156;17.960;2022-12-31T08:04:08;8.13;;;5.13;;
17725;SDS011;8983;53.156;17.960;2022-12-31T08:06:49;11.63;;;5.73;;
17725;SDS011;8983;53.156;17.960;2022-12-31T08:09:29;10.07;;;6.53;;
17725;SDS011;8983;53.156;17.960;2022-12-31T08:12:03;17.07;;;8.17;;
17725;SDS011;8983;53.156;17.960;2022-12-31T08:14:35;11.53;;;7.00;;
17725;SDS011;8983;53.156;17.960;2022-12-31T08:17:10;10.60;;;6.70;;
17725;SDS011;8983;53.156;17.960;2022-12-31T08:19:40;10.47;;;6.67;;
17725;SDS011;8983;53.156;17.960;2022-12-31T08:22:15;9.27;;;5.57;;
17725;SDS011;8983;53.156;17.960;2022-12-31T08:24:57;10.03;;;6.17;;
17725;SDS011;8983;53.156;17.960;2022-12-31T08:27:36;10.93;;;6.63;;
17725;SDS011;8983;53.156;17.960;2022-12-31T08:30:11;10.63;;;6.27;;
17725;SDS011;8983;53.156;17.960;2022-12-31T08:32:45;11.13;;;6.20;;
17725;SDS011;8983;53.156;17.960;2022-12-31T08:35:27;9.67;;;6.37;;
17725;SDS011;8983;53.156;17.960;2022-12-31T08:38:01;9.27;;;6.00;;
17725;SDS011;8983;53.156;17.960;2022-12-31T08:40:38;8.37;;;5.43;;
17725;SDS011;8983;53.156;17.960;2022-12-31T08:43:18;10.57;;;5.93;;
17725;SDS011;8983;53.156;17.960;2022-12-31T08:45:57;10.37;;;6.17;;
17725;SDS011;8983;53.156;17.960;2022-12-31T08:48:29;11.53;;;6.27;;
17725;SDS011;8983;53.156;17.960;2022-12-31T08:51:03;10.17;;;6.17;;
17725;SDS011;8983;53.156;17.960;2022-12-31T08:53:31;9.47;;;5.07;;
17725;SDS011;8983;53.156;17.960;2022-12-31T08:56:00;9.63;;;5.60;;
17725;SDS011;8983;53.156;17.960;2022-12-31T08:58:36;9.87;;;6.37;;
17725;SDS011;8983;53.156;17.960;2022-12-31T09:01:10;9.40;;;5.73;;
17725;SDS011;8983;53.156;17.960;2022-12-31T09:03:49;9.17;;;5.30;;
17725;SDS011;8983;53.156;17.960;2022-12-31T09:06:32;10.63;;;6.23;;
17725;SDS011;8983;53.156;17.960;2022-12-31T09:09:05;6.83;;;4.83;;
17725;SDS011;8983;53.156;17.960;2022-12-31T09:11:45;10.73;;;6.13;;
17725;SDS011;8983;53.156;17.960;2022-12-31T09:14:21;10.10;;;6.60;;
17725;SDS011;8983;53.156;17.960;2022-12-31T09:17:01;13.97;;;7.03;;
17725;SDS011;8983;53.156;17.960;2022-12-31T09:19:36;10.03;;;6.50;;
17725;SDS011;8983;53.156;17.960;2022-12-31T09:22:04;9.60;;;5.77;;
17725;SDS011;8983;53.156;17.960;2022-12-31T09:24:33;9.53;;;5.60;;
17725;SDS011;8983;53.156;17.960;2022-12-31T09:27:03;12.87;;;7.20;;
17725;SDS011;8983;53.156;17.960;2022-12-31T09:29:41;9.37;;;6.17;;
17725;SDS011;8983;53.156;17.960;2022-12-31T09:32:17;7.17;;;4.80;;
17725;SDS011;8983;53.156;17.960;2022-12-31T09:34:55;8.83;;;5.50;;
17725;SDS011;8983;53.156;17.960;2022-12-31T09:37:34;7.87;;;5.53;;
17725;SDS011;8983;53.156;17.960;2022-12-31T09:40:15;11.23;;;6.87;;
17725;SDS011;8983;53.156;17.960;2022-12-31T09:43:06;8.30;;;6.40;;
17725;SDS011;8983;53.156;17.960;2022-12-31T09:45:53;6.60;;;4.97;;
17725;SDS011;8983;53.156;17.960;2022-12-31T09:51:46;10.97;;;6.60;;
17725;SDS011;8983;53.156;17.960;2022-12-31T09:54:33;5.70;;;4.87;;
17725;SDS011;8983;53.156;17.960;2022-12-31T09:57:21;8.13;;;6.10;;
17725;SDS011;8983;53.156;17.960;2022-12-31T09:59:58;10.57;;;7.13;;
17725;SDS011;8983;53.156;17.960;2022-12-31T10:02:40;9.13;;;6.37;;
17725;SDS011;8983;53.156;17.960;2022-12-31T10:05:28;11.23;;;6.93;;
17725;SDS011;8983;53.156;17.960;2022-12-31T10:08:12;10.77;;;7.07;;
17725;SDS011;8983;53.156;17.960;2022-12-31T10:10:48;9.33;;;6.47;;
17725;SDS011;8983;53.156;17.960;2022-12-31T10:13:24;10.13;;;7.17;;
17725;SDS011;8983;53.156;17.960;2022-12-31T10:16:04;9.57;;;6.60;;
17725;SDS011;8983;53.156;17.960;2022-12-31T10:18:56;12.13;;;7.17;;
17725;SDS011;8983;53.156;17.960;2022-12-31T10:21:53;9.93;;;6.43;;
17725;SDS011;8983;53.156;17.960;2022-12-31T10:24:45;12.07;;;7.40;;
17725;SDS011;8983;53.156;17.960;2022-12-31T10:27:37;13.63;;;8.23;;
17725;SDS011;8983;53.156;17.960;2022-12-31T10:30:16;12.13;;;8.20;;
17725;SDS011;8983;53.156;17.960;2022-12-31T10:32:50;11.57;;;6.53;;
17725;SDS011;8983;53.156;17.960;2022-12-31T10:35:35;12.83;;;8.30;;
17725;SDS011;8983;53.156;17.960;2022-12-31T10:38:15;15.40;;;9.10;;
17725;SDS011;8983;53.156;17.960;2022-12-31T10:41:06;12.67;;;8.97;;
17725;SDS011;8983;53.156;17.960;2022-12-31T10:47:19;10.77;;;6.57;;
17725;SDS011;8983;53.156;17.960;2022-12-31T10:53:33;9.93;;;6.90;;
17725;SDS011;8983;53.156;17.960;2022-12-31T11:02:10;10.53;;;8.37;;
17725;SDS011;8983;53.156;17.960;2022-12-31T11:05:05;11.93;;;8.60;;
17725;SDS011;8983;53.156;17.960;2022-12-31T11:07:58;9.43;;;7.20;;
17725;SDS011;8983;53.156;17.960;2022-12-31T11:10:55;14.53;;;7.97;;
17725;SDS011;8983;53.156;17.960;2022-12-31T11:13:42;10.20;;;7.07;;
17725;SDS011;8983;53.156;17.960;2022-12-31T11:16:37;12.50;;;7.40;;
17725;SDS011;8983;53.156;17.960;2022-12-31T11:19:17;11.50;;;7.50;;
17725;SDS011;8983;53.156;17.960;2022-12-31T11:21:59;8.73;;;6.60;;
17725;SDS011;8983;53.156;17.960;2022-12-31T11:24:59;11.70;;;6.57;;
17725;SDS011;8983;53.156;17.960;2022-12-31T11:27:48;10.07;;;7.23;;
17725;SDS011;8983;53.156;17.960;2022-12-31T11:30:39;13.40;;;7.97;;
17725;SDS011;8983;53.156;17.960;2022-12-31T11:33:20;10.03;;;5.97;;
17725;SDS011;8983;53.156;17.960;2022-12-31T11:36:07;10.27;;;6.07;;
17725;SDS011;8983;53.156;17.960;2022-12-31T11:38:44;9.03;;;5.47;;
17725;SDS011;8983;53.156;17.960;2022-12-31T11:41:20;9.37;;;6.50;;
17725;SDS011;8983;53.156;17.960;2022-12-31T11:43:51;9.90;;;5.80;;
17725;SDS011;8983;53.156;17.960;2022-12-31T11:46:37;5.33;;;3.90;;
17725;SDS011;8983;53.156;17.960;2022-12-31T11:49:23;4.77;;;3.93;;
17725;SDS011;8983;53.156;17.960;2022-12-31T11:52:22;6.27;;;3.53;;
17725;SDS011;8983;53.156;17.960;2022-12-31T11:55:09;7.23;;;4.30;;
17725;SDS011;8983;53.156;17.960;2022-12-31T11:57:57;6.33;;;4.63;;
17725;SDS011;8983;53.156;17.960;2022-12-31T12:00:28;7.10;;;4.47;;
17725;SDS011;8983;53.156;17.960;2022-12-31T12:02:58;7.47;;;4.60;;
17725;SDS011;8983;53.156;17.960;2022-12-31T12:05:29;8.40;;;4.83;;
17725;SDS011;8983;53.156;17.960;2022-12-31T12:08:00;6.70;;;4.60;;
17725;SDS011;8983;53.156;17.960;2022-12-31T12:10:29;7.27;;;5.10;;
17725;SDS011;8983;53.156;17.960;2022-12-31T12:13:10;8.77;;;5.40;;
17725;SDS011;8983;53.156;17.960;2022-12-31T12:15:41;8.90;;;4.33;;
17725;SDS011;8983;53.156;17.960;2022-12-31T12:18:13;8.13;;;4.73;;
17725;SDS011;8983;53.156;17.960;2022-12-31T12:21:00;9.27;;;5.10;;
17725;SDS011;8983;53.156;17.960;2022-12-31T12:23:33;9.27;;;5.07;;
17725;SDS011;8983;53.156;17.960;2022-12-31T12:26:01;8.00;;;4.93;;
17725;SDS011;8983;53.156;17.960;2022-12-31T12:28:30;7.53;;;4.40;;
17725;SDS011;8983;53.156;17.960;2022-12-31T12:31:16;6.83;;;3.87;;
17725;SDS011;8983;53.156;17.960;2022-12-31T12:33:46;12.70;;;7.53;;
17725;SDS011;8983;53.156;17.960;2022-12-31T12:36:17;9.87;;;6.50;;
17725;SDS011;8983;53.156;17.960;2022-12-31T12:38:47;8.83;;;4.90;;
17725;SDS011;8983;53.156;17.960;2022-12-31T12:41:26;11.47;;;5.17;;
17725;SDS011;8983;53.156;17.960;2022-12-31T12:44:00;5.97;;;3.80;;
17725;SDS011;8983;53.156;17.960;2022-12-31T12:46:30;4.63;;;3.63;;
17725;SDS011;8983;53.156;17.960;2022-12-31T12:49:00;5.93;;;3.73;;
17725;SDS011;8983;53.156;17.960;2022-12-31T12:51:35;4.57;;;2.73;;
17725;SDS011;8983;53.156;17.960;2022-12-31T12:54:16;7.23;;;4.07;;
17725;SDS011;8983;53.156;17.960;2022-12-31T12:56:56;4.80;;;3.57;;
17725;SDS011;8983;53.156;17.960;2022-12-31T12:59:40;4.87;;;2.87;;
17725;SDS011;8983;53.156;17.960;2022-12-31T13:02:27;3.13;;;2.57;;
17725;SDS011;8983;53.156;17.960;2022-12-31T13:05:19;4.10;;;2.53;;
17725;SDS011;8983;53.156;17.960;2022-12-31T13:07:56;3.07;;;2.43;;
17725;SDS011;8983;53.156;17.960;2022-12-31T13:10:40;4.23;;;2.97;;
17725;SDS011;8983;53.156;17.960;2022-12-31T13:13:19;2.87;;;2.37;;
17725;SDS011;8983;53.156;17.960;2022-12-31T13:15:56;3.53;;;2.30;;
17725;SDS011;8983;53.156;17.960;2022-12-31T13:18:36;3.67;;;2.57;;
17725;SDS011;8983;53.156;17.960;2022-12-31T13:24:00;2.60;;;2.20;;
17725;SDS011;8983;53.156;17.960;2022-12-31T13:26:36;3.20;;;2.63;;
17725;SDS011;8983;53.156;17.960;2022-12-31T13:29:11;6.27;;;2.57;;
17725;SDS011;8983;53.156;17.960;2022-12-31T13:31:43;3.87;;;2.73;;
17725;SDS011;8983;53.156;17.960;2022-12-31T13:34:15;4.17;;;2.70;;
17725;SDS011;8983;53.156;17.960;2022-12-31T13:36:46;4.97;;;2.70;;
17725;SDS011;8983;53.156;17.960;2022-12-31T13:39:17;7.97;;;4.10;;
17725;SDS011;8983;53.156;17.960;2022-12-31T13:41:54;5.23;;;3.20;;
17725;SDS011;8983;53.156;17.960;2022-12-31T13:44:26;3.63;;;2.60;;
17725;SDS011;8983;53.156;17.960;2022-12-31T13:46:59;3.20;;;2.63;;
17725;SDS011;8983;53.156;17.960;2022-12-31T13:49:32;4.33;;;2.67;;
17725;SDS011;8983;53.156;17.960;2022-12-31T13:52:10;3.63;;;2.70;;
17725;SDS011;8983;53.156;17.960;2022-12-31T13:54:50;2.70;;;2.50;;
17725;SDS011;8983;53.156;17.960;2022-12-31T13:57:25;3.60;;;2.53;;
17725;SDS011;8983;53.156;17.960;2022-12-31T14:00:04;3.30;;;2.27;;
17725;SDS011;8983;53.156;17.960;2022-12-31T14:02:42;4.53;;;2.53;;
17725;SDS011;8983;53.156;17.960;2022-12-31T14:05:22;4.53;;;2.87;;
17725;SDS011;8983;53.156;17.960;2022-12-31T14:07:53;4.13;;;2.83;;
17725;SDS011;8983;53.156;17.960;2022-12-31T14:10:24;4.73;;;2.73;;
17725;SDS011;8983;53.156;17.960;2022-12-31T14:13:01;2.83;;;2.40;;
17725;SDS011;8983;53.156;17.960;2022-12-31T14:15:44;3.83;;;2.53;;
17725;SDS011;8983;53.156;17.960;2022-12-31T14:18:18;4.73;;;2.40;;
17725;SDS011;8983;53.156;17.960;2022-12-31T14:20:51;4.20;;;2.53;;
17725;SDS011;8983;53.156;17.960;2022-12-31T14:23:35;4.60;;;3.50;;
17725;SDS011;8983;53.156;17.960;2022-12-31T14:26:14;5.77;;;3.27;;
17725;SDS011;8983;53.156;17.960;2022-12-31T14:28:52;2.87;;;2.60;;
17725;SDS011;8983;53.156;17.960;2022-12-31T14:31:30;5.20;;;3.20;;
17725;SDS011;8983;53.156;17.960;2022-12-31T14:34:12;6.23;;;3.23;;
17725;SDS011;8983;53.156;17.960;2022-12-31T14:36:48;6.30;;;3.47;;
17725;SDS011;8983;53.156;17.960;2022-12-31T14:39:27;12.37;;;5.27;;
17725;SDS011;8983;53.156;17.960;2022-12-31T14:42:08;8.73;;;5.50;;
17725;SDS011;8983;53.156;17.960;2022-12-31T14:44:47;9.20;;;4.50;;
17725;SDS011;8983;53.156;17.960;2022-12-31T14:47:29;5.47;;;3.30;;
17725;SDS011;8983;53.156;17.960;2022-12-31T14:50:04;4.93;;;3.53;;
17725;SDS011;8983;53.156;17.960;2022-12-31T14:52:47;4.10;;;3.17;;
17725;SDS011;8983;53.156;17.960;2022-12-31T14:55:20;5.47;;;3.27;;
17725;SDS011;8983;53.156;17.960;2022-12-31T14:57:50;5.70;;;3.10;;
17725;SDS011;8983;53.156;17.960;2022-12-31T15:00:49;4.13;;;3.10;;
17725;SDS011;8983;53.156;17.960;2022-12-31T15:03:23;6.47;;;2.80;;
17725;SDS011;8983;53.156;17.960;2022-12-31T15:05:53;6.40;;;2.90;;
17725;SDS011;8983;53.156;17.960;2022-12-31T15:08:30;4.23;;;3.00;;
17725;SDS011;8983;53.156;17.960;2022-12-31T15:11:17;3.43;;;2.73;;
17725;SDS011;8983;53.156;17.960;2022-12-31T15:14:14;5.50;;;2.57;;
17725;SDS011;8983;53.156;17.960;2022-12-31T15:17:03;5.63;;;2.93;;
17725;SDS011;8983;53.156;17.960;2022-12-31T15:22:46;6.27;;;2.97;;
17725;SDS011;8983;53.156;17.960;2022-12-31T15:25:18;8.63;;;4.20;;
17725;SDS011;8983;53.156;17.960;2022-12-31T15:27:48;6.17;;;3.47;;
17725;SDS011;8983;53.156;17.960;2022-12-31T15:30:28;3.87;;;2.80;;
17725;SDS011;8983;53.156;17.960;2022-12-31T15:33:03;3.27;;;2.67;;
17725;SDS011;8983;53.156;17.960;2022-12-31T15:35:43;4.80;;;3.47;;
17725;SDS011;8983;53.156;17.960;2022-12-31T15:38:18;47.67;;;20.40;;
17725;SDS011;8983;53.156;17.960;2022-12-31T15:40:57;20.07;;;9.37;;
17725;SDS011;8983;53.156;17.960;2022-12-31T15:43:28;75.80;;;26.20;;
17725;SDS011;8983;53.156;17.960;2022-12-31T15:46:01;20.77;;;10.57;;
17725;SDS011;8983;53.156;17.960;2022-12-31T15:48:39;15.87;;;8.60;;
17725;SDS011;8983;53.156;17.960;2022-12-31T15:51:14;23.97;;;11.00;;
17725;SDS011;8983;53.156;17.960;2022-12-31T15:53:46;22.60;;;10.50;;